Time;durP1;ratioP1;P1;durP2;ratioP2;P2;SDS_P1;SDS_P2;PMS_P1;PMS_P2;Temp;Humidity;BMP_temperature;BMP_pressure;BME280_temperature;BME280_humidity;BME280_pressure;Samples;Min_cycle;Max_cycle;Signal;HPM_P1;HPM_P2
2022/09/06 00:00:07;;;;;;;2.58;2.20;;;21.60;99.90;;;;;;7391302;19;20370;-76
2022/09/06 00:02:34;;;;;;;3.08;2.45;;;21.30;99.90;;;;;;7391485;19;20155;-77
2022/09/06 00:05:00;;;;;;;2.97;2.55;;;21.10;99.90;;;;;;7392554;19;20749;-77
2022/09/06 00:07:26;;;;;;;5.82;3.40;;;21.00;99.90;;;;;;7392493;19;20519;-77
2022/09/06 00:09:53;;;;;;;4.70;2.65;;;20.90;99.90;;;;;;7391309;19;20153;-76
2022/09/06 00:12:19;;;;;;;4.30;2.90;;;20.80;99.90;;;;;;7388979;19;20181;-77
2022/09/06 00:14:45;;;;;;;3.53;2.70;;;20.70;99.90;;;;;;7390982;19;20595;-76
2022/09/06 00:17:11;;;;;;;4.90;2.80;;;20.70;99.90;;;;;;7390670;19;20135;-76
2022/09/06 00:19:37;;;;;;;6.55;2.40;;;20.60;99.90;;;;;;7392154;19;20142;-76
2022/09/06 00:22:02;;;;;;;4.70;2.70;;;20.60;99.90;;;;;;7391334;19;20163;-77
2022/09/06 00:24:29;;;;;;;2.65;2.30;;;20.60;99.90;;;;;;7386868;19;20131;-77
2022/09/06 00:26:54;;;;;;;5.45;2.70;;;20.70;99.90;;;;;;7391832;19;20599;-77
2022/09/06 00:29:20;;;;;;;2.88;2.10;;;20.70;99.90;;;;;;7391192;19;20210;-77
2022/09/06 00:31:46;;;;;;;3.75;2.53;;;20.60;99.90;;;;;;7390489;19;20568;-77
2022/09/06 00:34:12;;;;;;;3.45;2.40;;;20.70;99.90;;;;;;7392003;19;20157;-76
2022/09/06 00:36:37;;;;;;;3.10;2.38;;;20.50;99.90;;;;;;7391750;19;20493;-77
2022/09/06 00:39:03;;;;;;;2.75;2.38;;;20.50;99.90;;;;;;7390471;19;20524;-77
2022/09/06 00:41:29;;;;;;;3.85;2.38;;;20.50;99.90;;;;;;7393074;19;20126;-76
2022/09/06 00:43:55;;;;;;;2.95;2.13;;;20.80;99.90;;;;;;7390464;19;20174;-77
2022/09/06 00:46:25;;;;;;;2.97;2.22;;;21.00;99.90;;;;;;7392538;19;20234;-76
2022/09/06 00:49:00;;;;;;;2.75;2.30;;;21.00;99.90;;;;;;7388989;19;20157;-76
2022/09/06 00:51:28;;;;;;;3.60;2.45;;;21.00;99.90;;;;;;7392431;19;20142;-77
2022/09/06 00:53:55;;;;;;;3.47;2.50;;;20.70;99.90;;;;;;7392115;19;20198;-76
2022/09/06 00:56:21;;;;;;;3.33;2.10;;;20.70;99.90;;;;;;7391502;19;20134;-77
2022/09/06 00:58:48;;;;;;;3.35;2.80;;;20.70;99.90;;;;;;7389089;19;20598;-77
2022/09/06 01:01:14;;;;;;;4.88;2.20;;;20.80;99.90;;;;;;7390813;19;20493;-77
2022/09/06 01:03:40;;;;;;;4.55;2.67;;;21.00;99.90;;;;;;7388077;19;20590;-76
2022/09/06 01:06:26;;;;;;;6.03;3.00;;;20.90;99.90;;;;;;7390116;19;20150;-76
2022/09/06 01:09:20;;;;;;;4.63;2.70;;;20.80;99.90;;;;;;7389723;19;20164;-77
2022/09/06 01:12:24;;;;;;;3.08;2.60;;;20.80;99.90;;;;;;7391183;19;20142;-77
2022/09/06 01:15:04;;;;;;;4.10;2.25;;;21.00;99.90;;;;;;7391174;19;20185;-77
2022/09/06 01:17:38;;;;;;;4.05;2.65;;;21.00;99.90;;;;;;7389467;19;20214;-77
2022/09/06 01:20:15;;;;;;;2.50;2.13;;;20.80;99.90;;;;;;7385621;19;20138;-77
2022/09/06 01:23:19;;;;;;;3.97;2.60;;;20.50;99.90;;;;;;7391568;19;20135;-77
2022/09/06 01:25:44;;;;;;;2.90;2.08;;;20.50;99.90;;;;;;7389485;19;20161;-77
2022/09/06 01:28:24;;;;;;;3.80;2.20;;;20.70;99.90;;;;;;7388672;19;20142;-77
2022/09/06 01:30:59;;;;;;;2.67;2.10;;;20.70;99.90;;;;;;7392283;19;20141;-76
2022/09/06 01:33:40;;;;;;;3.05;2.25;;;20.50;99.90;;;;;;7391070;19;20162;-76
2022/09/06 01:36:16;;;;;;;2.70;1.95;;;20.50;99.90;;;;;;7384774;19;20305;-76
2022/09/06 01:38:42;;;;;;;2.78;2.15;;;20.40;99.90;;;;;;7394507;19;20158;-76
2022/09/06 01:41:08;;;;;;;2.58;2.22;;;20.70;99.90;;;;;;7397189;19;20222;-77
2022/09/06 01:43:38;;;;;;;2.22;2.00;;;20.70;99.90;;;;;;7394512;19;20149;-77
2022/09/06 01:46:38;;;;;;;3.38;2.17;;;20.90;99.90;;;;;;7397401;19;20139;-78
2022/09/06 01:49:32;;;;;;;2.35;2.15;;;21.10;99.90;;;;;;7396317;19;20134;-77
2022/09/06 01:52:13;;;;;;;4.15;2.55;;;21.30;99.90;;;;;;7397879;19;20146;-76
2022/09/06 01:55:06;;;;;;;3.10;2.40;;;21.40;99.90;;;;;;7397206;19;20235;-76
2022/09/06 01:57:54;;;;;;;3.15;2.58;;;21.20;99.90;;;;;;7394776;19;20645;-76
2022/09/06 02:00:21;;;;;;;2.25;2.00;;;21.20;99.90;;;;;;7395620;19;20134;-76
2022/09/06 02:03:11;;;;;;;2.83;2.00;;;20.80;99.90;;;;;;7398551;19;20464;-75
2022/09/06 02:05:53;;;;;;;2.55;2.00;;;20.50;99.90;;;;;;7396074;19;20153;-75
2022/09/06 02:08:31;;;;;;;2.88;2.20;;;20.70;99.90;;;;;;7395074;19;20143;-76
2022/09/06 02:11:06;;;;;;;3.42;2.28;;;21.00;99.90;;;;;;7397491;19;20134;-76
2022/09/06 02:14:02;;;;;;;2.88;2.22;;;20.70;99.90;;;;;;7394109;19;20579;-76
2022/09/06 02:16:30;;;;;;;3.53;2.30;;;20.30;99.90;;;;;;7395383;19;20611;-76
2022/09/06 02:19:00;;;;;;;2.58;2.38;;;20.50;99.90;;;;;;7393841;19;20194;-77
2022/09/06 02:21:31;;;;;;;3.17;2.47;;;20.80;99.90;;;;;;7394189;19;20153;-76
2022/09/06 02:24:01;;;;;;;2.40;2.20;;;20.90;99.90;;;;;;7394923;19;20169;-76
2022/09/06 02:26:30;;;;;;;3.53;2.50;;;20.80;99.90;;;;;;7393629;19;20131;-77
2022/09/06 02:28:56;;;;;;;2.60;2.40;;;20.70;99.90;;;;;;7394889;19;20137;-77
2022/09/06 02:31:30;;;;;;;2.60;1.90;;;20.70;99.90;;;;;;7393870;19;20134;-75
2022/09/06 02:33:56;;;;;;;3.97;2.30;;;20.60;99.90;;;;;;7395782;19;20163;-76
2022/09/06 02:36:23;;;;;;;2.28;2.05;;;20.80;99.90;;;;;;7394062;19;20138;-76
2022/09/06 02:38:49;;;;;;;3.28;2.10;;;21.00;99.90;;;;;;7395550;19;20183;-80
2022/09/06 02:41:21;;;;;;;2.45;2.00;;;21.20;99.90;;;;;;7397374;19;20239;-79
2022/09/06 02:43:47;;;;;;;4.18;2.15;;;21.20;99.90;;;;;;7396944;19;20517;-78
2022/09/06 02:46:13;;;;;;;5.00;2.30;;;21.30;99.90;;;;;;7395172;19;20995;-78
2022/09/06 02:48:39;;;;;;;2.97;2.03;;;21.30;99.90;;;;;;7392970;19;20145;-77
2022/09/06 02:51:06;;;;;;;4.30;2.35;;;21.10;99.90;;;;;;7392335;19;20134;-79
2022/09/06 02:53:32;;;;;;;2.97;2.55;;;21.00;99.90;;;;;;7394102;19;20141;-79
2022/09/06 02:55:58;;;;;;;3.28;2.53;;;21.30;99.90;;;;;;7395227;19;20496;-78
2022/09/06 02:58:25;;;;;;;5.85;2.97;;;21.40;99.90;;;;;;7390968;19;20149;-78
2022/09/06 03:00:52;;;;;;;5.28;2.63;;;21.50;99.90;;;;;;7392604;19;20139;-79
2022/09/06 03:03:19;;;;;;;4.20;2.83;;;21.20;99.90;;;;;;7394781;19;20127;-81
2022/09/06 03:05:50;;;;;;;4.25;3.10;;;20.20;99.90;;;;;;7392922;19;20143;-82
2022/09/06 03:08:17;;;;;;;3.78;3.22;;;20.10;99.90;;;;;;7395557;19;20138;-82
2022/09/06 03:10:53;;;;;;;6.15;3.25;;;20.00;99.90;;;;;;7393238;19;20483;-82
2022/09/06 03:13:20;;;;;;;3.97;2.97;;;20.00;99.90;;;;;;7396076;19;20134;-82
2022/09/06 03:15:56;;;;;;;5.65;3.20;;;19.70;99.90;;;;;;7395622;19;20139;-81
2022/09/06 03:18:25;;;;;;;3.40;2.92;;;19.80;99.90;;;;;;7393537;19;20146;-82
2022/09/06 03:20:53;;;;;;;5.95;3.63;;;19.80;99.90;;;;;;7394023;19;20583;-82
2022/09/06 03:23:20;;;;;;;4.05;3.33;;;19.60;99.90;;;;;;7394744;19;20152;-82
2022/09/06 03:25:46;;;;;;;4.97;3.50;;;19.60;99.90;;;;;;7393951;19;20134;-81
2022/09/06 03:28:11;;;;;;;4.30;3.15;;;19.70;99.90;;;;;;7396253;19;20142;-82
2022/09/06 03:30:38;;;;;;;4.97;3.30;;;19.70;99.90;;;;;;7391466;19;20130;-82
2022/09/06 03:33:04;;;;;;;5.80;4.07;;;19.90;99.90;;;;;;7394149;19;20138;-81
2022/09/06 03:35:30;;;;;;;6.13;3.08;;;20.00;99.90;;;;;;7393994;19;20168;-82
2022/09/06 03:37:56;;;;;;;5.50;3.50;;;20.00;99.90;;;;;;7391904;19;20180;-80
2022/09/06 03:40:23;;;;;;;6.00;3.50;;;19.90;99.90;;;;;;7393968;19;20158;-82
2022/09/06 03:42:49;;;;;;;4.07;3.15;;;19.70;99.90;;;;;;7393348;19;20146;-82
2022/09/06 03:45:15;;;;;;;4.45;3.20;;;19.80;99.90;;;;;;7394090;19;20475;-80
2022/09/06 03:47:40;;;;;;;4.60;3.55;;;19.80;99.90;;;;;;7392470;19;20130;-81
2022/09/06 03:50:09;;;;;;;4.20;3.60;;;19.80;99.90;;;;;;7393167;19;20135;-83
2022/09/06 03:52:35;;;;;;;4.97;3.58;;;19.90;99.90;;;;;;7394660;19;20150;-81
2022/09/06 03:55:02;;;;;;;4.82;3.42;;;20.00;99.90;;;;;;7393481;19;20184;-82
2022/09/06 03:57:28;;;;;;;7.45;3.60;;;20.10;99.90;;;;;;7390763;19;20165;-81
2022/09/06 03:59:53;;;;;;;5.97;3.58;;;19.70;99.90;;;;;;7391952;19;20130;-82
2022/09/06 04:02:19;;;;;;;4.47;3.17;;;19.60;99.90;;;;;;7391311;19;20150;-82
2022/09/06 04:04:46;;;;;;;3.50;3.20;;;19.50;99.90;;;;;;7392618;19;20134;-82
2022/09/06 04:07:12;;;;;;;6.50;3.17;;;19.50;99.90;;;;;;7391581;19;20138;-83
2022/09/06 04:09:38;;;;;;;4.35;3.13;;;19.50;99.90;;;;;;7393645;19;20260;-83
2022/09/06 04:12:04;;;;;;;5.05;3.08;;;19.30;99.90;;;;;;7392043;19;20178;-83
2022/09/06 04:14:30;;;;;;;3.92;3.08;;;19.20;99.90;;;;;;7393452;19;20139;-82
2022/09/06 04:16:55;;;;;;;4.40;3.90;;;19.30;99.90;;;;;;7391108;19;20501;-81
2022/09/06 04:19:22;;;;;;;4.55;3.38;;;19.30;99.90;;;;;;7392205;19;20151;-82
2022/09/06 04:21:48;;;;;;;6.35;3.50;;;19.50;99.90;;;;;;7392298;19;20154;-82
2022/09/06 04:24:14;;;;;;;3.40;3.10;;;19.50;99.90;;;;;;7393482;19;20572;-83
2022/09/06 04:26:40;;;;;;;3.40;3.00;;;19.70;99.90;;;;;;7390900;19;20147;-81
2022/09/06 04:29:06;;;;;;;3.72;3.10;;;19.70;99.90;;;;;;7389808;19;20157;-81
2022/09/06 04:31:31;;;;;;;4.40;3.30;;;19.70;99.90;;;;;;7391256;19;20209;-81
2022/09/06 04:33:57;;;;;;;5.30;3.40;;;19.80;99.90;;;;;;7393338;19;20146;-81
2022/09/06 04:36:23;;;;;;;3.70;3.17;;;19.80;99.90;;;;;;7392920;19;20249;-82
2022/09/06 04:38:49;;;;;;;3.38;2.85;;;19.60;99.90;;;;;;7391509;19;20153;-82
2022/09/06 04:41:16;;;;;;;3.33;3.03;;;19.30;99.90;;;;;;7391096;19;20155;-81
2022/09/06 04:43:42;;;;;;;5.55;3.55;;;19.60;99.90;;;;;;7392094;19;20163;-82
2022/09/06 04:46:25;;;;;;;4.25;3.45;;;19.70;99.90;;;;;;7392719;19;20134;-83
2022/09/06 04:48:53;;;;;;;4.57;3.58;;;19.60;99.90;;;;;;7392777;19;20616;-82
2022/09/06 04:51:19;;;;;;;4.40;3.22;;;19.50;99.90;;;;;;7393403;19;20154;-82
2022/09/06 04:53:46;;;;;;;4.57;3.58;;;19.50;99.90;;;;;;7392935;19;20592;-82
2022/09/06 04:56:21;;;;;;;4.20;3.58;;;19.30;99.90;;;;;;7392636;19;20130;-83
2022/09/06 04:58:48;;;;;;;4.80;3.20;;;19.30;99.90;;;;;;7392588;19;20157;-82
2022/09/06 05:01:14;;;;;;;3.95;3.17;;;19.50;99.90;;;;;;7394325;19;20144;-83
2022/09/06 05:03:40;;;;;;;5.70;3.00;;;19.70;99.90;;;;;;7392640;19;20143;-83
2022/09/06 05:06:11;;;;;;;6.03;3.45;;;19.80;99.90;;;;;;7393938;19;20152;-83
2022/09/06 05:08:37;;;;;;;3.50;3.05;;;19.90;99.90;;;;;;7390552;19;20158;-82
2022/09/06 05:11:05;;;;;;;5.97;3.30;;;20.00;99.90;;;;;;7393403;19;20146;-81
2022/09/06 05:13:30;;;;;;;5.45;3.35;;;20.10;99.90;;;;;;7395876;19;20163;-83
2022/09/06 05:16:00;;;;;;;5.15;4.07;;;20.20;99.90;;;;;;7400179;19;20153;-82
2022/09/06 05:18:26;;;;;;;4.07;3.53;;;20.00;99.90;;;;;;7397412;19;20134;-81
2022/09/06 05:20:53;;;;;;;4.80;3.58;;;19.80;99.90;;;;;;7399122;19;20147;-79
2022/09/06 05:23:19;;;;;;;3.75;3.13;;;19.50;99.90;;;;;;7397275;19;20629;-77
2022/09/06 05:25:45;;;;;;;5.45;3.78;;;19.40;99.90;;;;;;7398656;19;20483;-78
2022/09/06 05:28:12;;;;;;;6.30;3.90;;;19.60;99.90;;;;;;7397665;19;20134;-78
2022/09/06 05:30:40;;;;;;;3.60;3.20;;;19.90;99.90;;;;;;7397745;19;20157;-77
2022/09/06 05:33:07;;;;;;;3.50;3.20;;;19.90;99.90;;;;;;7397314;19;20146;-76
2022/09/06 05:35:34;;;;;;;3.88;3.40;;;20.00;99.90;;;;;;7393827;19;20142;-76
2022/09/06 05:38:00;;;;;;;4.05;3.65;;;20.00;99.90;;;;;;7390888;19;20472;-79
2022/09/06 05:40:26;;;;;;;5.82;4.13;;;20.10;99.90;;;;;;7397800;19;20134;-77
2022/09/06 05:42:52;;;;;;;4.60;3.70;;;20.20;99.90;;;;;;7396146;19;20214;-77
2022/09/06 05:45:18;;;;;;;5.55;4.03;;;20.20;99.90;;;;;;7396642;19;20896;-77
2022/09/06 05:47:44;;;;;;;6.40;3.33;;;20.20;99.90;;;;;;7396714;19;20147;-78
2022/09/06 05:50:09;;;;;;;5.63;3.25;;;20.10;99.90;;;;;;7395279;19;20150;-79
2022/09/06 05:52:35;;;;;;;5.55;3.67;;;20.00;99.90;;;;;;7394504;19;20130;-78
2022/09/06 05:55:03;;;;;;;5.55;3.42;;;20.00;99.90;;;;;;7395940;19;20135;-77
2022/09/06 05:57:28;;;;;;;4.40;3.47;;;20.00;99.90;;;;;;7395101;19;20159;-76
2022/09/06 05:59:54;;;;;;;4.88;3.47;;;20.10;99.90;;;;;;7395718;19;20534;-77
2022/09/06 06:02:21;;;;;;;4.28;3.40;;;20.30;99.90;;;;;;7398387;19;20135;-77
2022/09/06 06:04:48;;;;;;;6.82;3.85;;;20.40;99.90;;;;;;7396476;19;20137;-79
2022/09/06 06:07:14;;;;;;;5.43;3.80;;;20.50;99.90;;;;;;7396434;19;20142;-76
2022/09/06 06:09:40;;;;;;;7.32;4.20;;;20.40;99.90;;;;;;7393601;19;20147;-78
2022/09/06 06:12:07;;;;;;;5.20;3.85;;;20.50;99.90;;;;;;7396469;19;20151;-76
2022/09/06 06:14:33;;;;;;;5.10;3.53;;;20.60;99.90;;;;;;7397291;19;20546;-77
2022/09/06 06:16:59;;;;;;;5.13;3.63;;;20.60;99.90;;;;;;7394991;19;20165;-77
2022/09/06 06:19:28;;;;;;;4.57;3.38;;;20.70;99.90;;;;;;7395322;19;20611;-77
2022/09/06 06:21:55;;;;;;;4.88;3.60;;;20.70;99.90;;;;;;7395601;19;20150;-77
2022/09/06 06:24:21;;;;;;;6.57;3.42;;;20.80;99.90;;;;;;7398314;19;20153;-77
2022/09/06 06:26:47;;;;;;;7.50;3.85;;;20.80;99.90;;;;;;7396914;19;20135;-78
2022/09/06 06:29:13;;;;;;;4.28;3.42;;;20.90;99.90;;;;;;7398507;19;20592;-82
2022/09/06 06:31:39;;;;;;;4.38;3.40;;;20.90;99.90;;;;;;7398298;19;20135;-81
2022/09/06 06:34:06;;;;;;;5.18;3.30;;;20.80;99.90;;;;;;7396548;19;20147;-81
2022/09/06 06:36:33;;;;;;;4.38;3.35;;;20.60;99.90;;;;;;7396630;19;20468;-82
2022/09/06 06:39:01;;;;;;;5.35;3.20;;;20.60;99.90;;;;;;7397742;19;20151;-80
2022/09/06 06:41:30;;;;;;;6.57;3.70;;;20.40;99.90;;;;;;7396950;19;20143;-80
2022/09/06 06:44:02;;;;;;;4.05;3.17;;;20.60;99.90;;;;;;7397499;19;20492;-81
2022/09/06 06:46:30;;;;;;;5.05;3.22;;;20.50;99.90;;;;;;7396412;19;20146;-81
2022/09/06 06:48:56;;;;;;;6.65;3.65;;;20.60;99.90;;;;;;7397473;19;20148;-81
2022/09/06 06:51:28;;;;;;;4.38;3.80;;;20.80;99.90;;;;;;7396374;19;20150;-81
2022/09/06 06:53:55;;;;;;;4.03;3.13;;;20.90;99.90;;;;;;7397779;19;20619;-80
2022/09/06 06:56:30;;;;;;;3.40;3.10;;;20.60;99.90;;;;;;7396518;19;20145;-80
2022/09/06 06:58:59;;;;;;;5.75;3.40;;;20.60;99.90;;;;;;7394584;19;20152;-81
2022/09/06 07:01:26;;;;;;;5.68;3.63;;;20.50;99.90;;;;;;7397505;19;20142;-81
2022/09/06 07:03:53;;;;;;;3.83;3.35;;;20.90;99.90;;;;;;7399455;19;20166;-81
2022/09/06 07:06:20;;;;;;;3.97;3.28;;;20.90;99.90;;;;;;7396462;19;20154;-81
2022/09/06 07:08:46;;;;;;;6.60;3.50;;;21.00;99.90;;;;;;7398596;19;20153;-81
2022/09/06 07:11:14;;;;;;;4.70;3.30;;;21.20;99.90;;;;;;7397739;19;20143;-80
2022/09/06 07:13:40;;;;;;;4.40;3.40;;;21.40;99.90;;;;;;7395146;19;20158;-79
2022/09/06 07:16:14;;;;;;;3.10;2.80;;;21.50;99.90;;;;;;7397039;19;20164;-81
2022/09/06 07:18:42;;;;;;;5.88;3.22;;;21.70;99.90;;;;;;7392732;19;20143;-81
2022/09/06 07:21:20;;;;;;;3.85;3.40;;;21.70;99.90;;;;;;7397865;19;20165;-81
2022/09/06 07:23:47;;;;;;;4.88;3.25;;;21.60;99.90;;;;;;7395644;19;20161;-81
2022/09/06 07:26:14;;;;;;;3.33;2.45;;;21.30;99.90;;;;;;7393487;19;20230;-81
2022/09/06 07:28:41;;;;;;;4.25;2.72;;;21.30;99.90;;;;;;7395704;19;20138;-81
2022/09/06 07:31:07;;;;;;;6.43;3.05;;;21.50;99.90;;;;;;7394271;19;20151;-80
2022/09/06 07:33:37;;;;;;;4.72;2.47;;;21.70;99.90;;;;;;7397014;19;20157;-81
2022/09/06 07:36:05;;;;;;;5.55;2.38;;;21.90;99.90;;;;;;7392615;19;20193;-80
2022/09/06 07:38:32;;;;;;;7.80;2.95;;;21.90;99.90;;;;;;7391373;19;20163;-81
2022/09/06 07:41:03;;;;;;;4.80;2.45;;;22.00;99.90;;;;;;7394245;19;20162;-81
2022/09/06 07:43:30;;;;;;;3.72;2.50;;;22.10;99.90;;;;;;7394204;19;20154;-82
2022/09/06 07:45:59;;;;;;;4.90;3.03;;;21.80;99.90;;;;;;7395271;19;20218;-81
2022/09/06 07:48:28;;;;;;;4.85;2.95;;;22.00;99.90;;;;;;7393623;19;20502;-83
2022/09/06 07:50:54;;;;;;;4.35;3.03;;;22.10;99.90;;;;;;7393781;19;20155;-80
2022/09/06 07:53:20;;;;;;;3.70;2.40;;;22.60;99.90;;;;;;7393962;19;20169;-82
2022/09/06 07:55:46;;;;;;;3.75;2.33;;;23.30;99.90;;;;;;7393489;19;20246;-79
2022/09/06 07:58:12;;;;;;;5.15;2.60;;;23.50;99.90;;;;;;7392049;19;20247;-82
2022/09/06 08:00:39;;;;;;;11.13;3.20;;;24.10;99.90;;;;;;7392864;19;20141;-82
2022/09/06 08:03:05;;;;;;;7.75;2.40;;;24.30;99.90;;;;;;7394072;19;20151;-81
2022/09/06 08:05:31;;;;;;;6.68;2.15;;;24.60;99.90;;;;;;7392777;19;20172;-79
2022/09/06 08:07:57;;;;;;;5.35;2.60;;;24.50;99.90;;;;;;7394623;19;20147;-81
2022/09/06 08:10:23;;;;;;;5.68;2.70;;;24.90;99.90;;;;;;7391760;19;20489;-81
2022/09/06 08:12:53;;;;;;;4.15;3.00;;;24.90;99.90;;;;;;7392346;19;20258;-81
2022/09/06 08:15:19;;;;;;;5.60;2.72;;;25.10;99.90;;;;;;7392160;19;20156;-80
2022/09/06 08:17:49;;;;;;;8.80;2.50;;;24.80;99.90;;;;;;7393786;19;20146;-80
2022/09/06 08:20:15;;;;;;;3.83;2.90;;;24.60;99.90;;;;;;7393325;19;20143;-81
2022/09/06 08:22:41;;;;;;;4.57;2.20;;;25.00;99.90;;;;;;7393690;19;20166;-81
2022/09/06 08:25:08;;;;;;;6.05;2.75;;;25.30;99.90;;;;;;7392021;19;20225;-81
2022/09/06 08:27:34;;;;;;;3.90;2.33;;;25.40;99.90;;;;;;7393348;19;20218;-80
2022/09/06 08:30:00;;;;;;;2.22;1.88;;;25.60;99.90;;;;;;7393770;19;20168;-80
2022/09/06 08:32:25;;;;;;;4.32;2.33;;;25.70;99.90;;;;;;7392098;19;20181;-80
2022/09/06 08:34:51;;;;;;;3.22;2.28;;;25.60;99.90;;;;;;7393221;19;20142;-80
2022/09/06 08:37:17;;;;;;;2.90;2.20;;;25.70;99.90;;;;;;7392120;19;20608;-80
2022/09/06 08:39:43;;;;;;;4.82;2.00;;;25.70;99.90;;;;;;7392735;19;20150;-80
2022/09/06 08:42:11;;;;;;;3.50;2.53;;;25.90;99.90;;;;;;7393493;19;20672;-79
2022/09/06 08:44:41;;;;;;;3.85;2.50;;;25.90;99.90;;;;;;7393807;19;20453;-81
2022/09/06 08:47:08;;;;;;;4.10;2.13;;;25.90;99.90;;;;;;7389931;19;20599;-78
2022/09/06 08:49:51;;;;;;;3.80;2.30;;;25.60;99.90;;;;;;7390963;19;20161;-79
2022/09/06 08:52:26;;;;;;;10.93;2.20;;;25.80;99.90;;;;;;7393026;19;20591;-79
2022/09/06 08:55:13;;;;;;;3.65;1.85;;;25.90;99.90;;;;;;7392039;19;20139;-80
2022/09/06 08:58:08;;;;;;;8.52;2.42;;;26.10;99.90;;;;;;7389922;19;20492;-79
2022/09/06 09:00:35;;;;;;;5.88;2.47;;;26.10;99.90;;;;;;7390253;19;20158;-79
2022/09/06 09:03:16;;;;;;;7.25;2.42;;;26.10;99.90;;;;;;7390967;19;20139;-79
2022/09/06 09:05:46;;;;;;;4.40;2.10;;;26.10;99.90;;;;;;7390461;19;20627;-79
2022/09/06 09:08:20;;;;;;;8.50;2.33;;;26.30;99.90;;;;;;7391739;19;20221;-80
2022/09/06 09:10:49;;;;;;;5.32;2.20;;;26.30;99.90;;;;;;7390018;19;20553;-80
2022/09/06 09:13:25;;;;;;;6.85;2.10;;;26.40;99.90;;;;;;7391351;19;20643;-79
2022/09/06 09:15:52;;;;;;;7.30;1.98;;;26.40;99.90;;;;;;7391272;19;20206;-79
2022/09/06 09:18:26;;;;;;;5.18;2.55;;;26.40;99.90;;;;;;7388211;19;20158;-80
2022/09/06 09:20:52;;;;;;;3.47;1.95;;;26.30;99.90;;;;;;7391210;19;20158;-79
2022/09/06 09:23:18;;;;;;;5.82;2.33;;;26.50;99.90;;;;;;7390260;19;20607;-79
2022/09/06 09:25:45;;;;;;;6.20;2.17;;;26.70;99.90;;;;;;7392405;19;20153;-80
2022/09/06 09:28:22;;;;;;;4.45;2.15;;;27.00;99.90;;;;;;7389852;19;20206;-80
2022/09/06 09:30:53;;;;;;;7.60;2.60;;;27.10;99.90;;;;;;7391006;19;20142;-80
2022/09/06 09:33:29;;;;;;;4.10;2.15;;;27.00;99.90;;;;;;7392167;19;20143;-79
2022/09/06 09:35:59;;;;;;;4.82;2.20;;;27.00;99.90;;;;;;7393416;19;20150;-80
2022/09/06 09:38:29;;;;;;;5.15;2.55;;;27.00;99.90;;;;;;7388823;19;20143;-81
2022/09/06 09:41:06;;;;;;;5.47;2.20;;;26.80;99.90;;;;;;7391640;19;20154;-81
2022/09/06 09:43:38;;;;;;;4.95;2.30;;;26.80;99.90;;;;;;7391571;19;20134;-80
2022/09/06 09:46:13;;;;;;;4.63;2.00;;;27.00;99.90;;;;;;7393448;19;20146;-80
2022/09/06 09:48:40;;;;;;;7.90;2.40;;;27.10;99.90;;;;;;7390173;19;20157;-80
2022/09/06 09:51:20;;;;;;;3.70;2.30;;;27.30;99.90;;;;;;7389477;19;20175;-79
2022/09/06 09:53:52;;;;;;;8.55;2.50;;;27.60;99.90;;;;;;7391113;19;20142;-80
2022/09/06 09:56:27;;;;;;;4.80;2.58;;;27.70;99.90;;;;;;7390311;19;20150;-81
2022/09/06 09:58:55;;;;;;;6.10;2.17;;;27.70;99.90;;;;;;7392757;19;20180;-80
2022/09/06 10:01:26;;;;;;;4.35;2.20;;;27.80;99.90;;;;;;7397575;19;20158;-81
2022/09/06 10:04:01;;;;;;;8.15;2.28;;;27.70;99.90;;;;;;7396180;19;20181;-79
2022/09/06 10:06:30;;;;;;;3.38;1.92;;;27.80;99.90;;;;;;7397005;19;20172;-79
2022/09/06 10:08:56;;;;;;;4.68;2.70;;;27.90;99.90;;;;;;7395291;19;20703;-79
2022/09/06 10:11:48;;;;;;;3.20;1.83;;;28.00;99.90;;;;;;7395852;19;20178;-80
2022/09/06 10:14:41;;;;;;;4.60;2.20;;;28.10;99.90;;;;;;7397073;19;20644;-81
2022/09/06 10:17:16;;;;;;;6.03;2.30;;;28.10;99.90;;;;;;7395376;19;20612;-80
2022/09/06 10:19:44;;;;;;;2.42;1.88;;;28.10;99.90;;;;;;7394963;19;20138;-80
2022/09/06 10:22:31;;;;;;;7.18;2.05;;;28.00;99.90;;;;;;7398046;19;20630;-80
2022/09/06 10:25:29;;;;;;;2.60;1.60;;;27.80;99.90;;;;;;7396498;19;20169;-80
2022/09/06 10:28:28;;;;;;;6.53;2.88;;;27.80;99.90;;;;;;7395739;19;20147;-81
2022/09/06 10:31:31;;;;;;;6.25;3.05;;;27.70;99.90;;;;;;7396077;19;20145;-79
2022/09/06 10:34:30;;;;;;;5.85;1.90;;;27.50;99.90;;;;;;7395971;19;20150;-80
2022/09/06 10:37:31;;;;;;;3.55;1.50;;;27.60;99.90;;;;;;7394786;19;20691;-80
2022/09/06 10:40:08;;;;;;;3.72;1.90;;;27.70;99.90;;;;;;7394030;19;20217;-80
2022/09/06 10:42:53;;;;;;;4.82;1.55;;;27.70;99.90;;;;;;7395861;19;20165;-80
2022/09/06 10:45:46;;;;;;;4.55;2.25;;;27.50;99.90;;;;;;7395373;19;20143;-78
2022/09/06 10:48:28;;;;;;;4.18;1.55;;;27.40;99.90;;;;;;7396056;19;20176;-80
2022/09/06 10:51:28;;;;;;;6.68;2.10;;;27.50;99.90;;;;;;7393797;19;20206;-80
2022/09/06 10:53:59;;;;;;;4.80;1.88;;;27.40;99.90;;;;;;7397005;19;20500;-79
2022/09/06 10:56:35;;;;;;;7.90;2.08;;;27.40;99.90;;;;;;7394655;19;20142;-80
2022/09/06 10:59:38;;;;;;;4.82;1.70;;;27.50;99.90;;;;;;7392904;19;20671;-79
2022/09/06 11:02:38;;;;;;;4.72;1.77;;;27.40;99.90;;;;;;7395179;19;20152;-80
2022/09/06 11:05:19;;;;;;;2.83;2.00;;;27.50;99.90;;;;;;7395731;19;20168;-80
2022/09/06 11:08:01;;;;;;;5.30;2.35;;;27.40;99.90;;;;;;7395003;19;20150;-79
2022/09/06 11:10:31;;;;;;;8.20;2.05;;;27.40;99.90;;;;;;7393684;19;20635;-79
2022/09/06 11:13:11;;;;;;;6.10;2.13;;;27.40;99.90;;;;;;7393524;19;20608;-79
2022/09/06 11:16:03;;;;;;;3.20;2.20;;;27.50;99.90;;;;;;7394390;19;20134;-79
2022/09/06 11:18:44;;;;;;;8.48;2.58;;;27.40;99.90;;;;;;7393398;19;20154;-79
2022/09/06 11:21:37;;;;;;;10.98;3.05;;;27.60;99.90;;;;;;7392578;19;20131;-80
2022/09/06 11:24:15;;;;;;;4.18;2.33;;;27.60;99.90;;;;;;7394632;19;20165;-80
2022/09/06 11:27:18;;;;;;;5.68;2.42;;;27.70;99.90;;;;;;7395497;19;20169;-80
2022/09/06 11:29:46;;;;;;;7.68;2.17;;;27.80;99.90;;;;;;7393033;19;20146;-80
2022/09/06 11:32:32;;;;;;;7.68;2.40;;;27.90;99.90;;;;;;7393978;19;20165;-80
2022/09/06 11:35:03;;;;;;;5.40;2.22;;;28.10;99.90;;;;;;7394196;19;20246;-80
2022/09/06 11:37:44;;;;;;;5.05;2.13;;;28.10;99.90;;;;;;7392104;19;20138;-79
2022/09/06 11:40:24;;;;;;;5.47;2.40;;;28.20;99.90;;;;;;7393771;19;20138;-80
2022/09/06 11:42:49;;;;;;;4.97;2.90;;;28.10;99.90;;;;;;7394566;19;20153;-80
2022/09/06 11:45:40;;;;;;;3.92;2.13;;;28.20;99.90;;;;;;7396531;19;20138;-80
2022/09/06 11:48:25;;;;;;;5.90;1.95;;;28.20;99.90;;;;;;7392895;19;20477;-80
2022/09/06 11:51:06;;;;;;;3.90;1.98;;;28.40;99.90;;;;;;7392444;19;20158;-80
2022/09/06 11:53:57;;;;;;;4.50;2.08;;;28.60;99.90;;;;;;7396342;19;20138;-81
2022/09/06 11:56:23;;;;;;;3.25;2.00;;;28.70;99.90;;;;;;7393740;19;20514;-80
2022/09/06 11:59:00;;;;;;;5.70;2.30;;;28.70;99.90;;;;;;7389672;19;20175;-80
2022/09/06 12:01:27;;;;;;;5.60;2.40;;;28.70;99.90;;;;;;7393442;19;20157;-80
2022/09/06 12:03:55;;;;;;;5.97;2.28;;;28.70;99.90;;;;;;7394033;19;20233;-81
2022/09/06 12:06:23;;;;;;;3.67;2.10;;;28.60;99.90;;;;;;7394731;19;20234;-79
2022/09/06 12:08:51;;;;;;;4.03;2.17;;;28.60;99.90;;;;;;7392385;19;20138;-80
2022/09/06 12:11:36;;;;;;;3.75;2.10;;;28.50;99.90;;;;;;7392931;19;20174;-80
2022/09/06 12:14:28;;;;;;;5.70;2.33;;;28.50;99.90;;;;;;7393017;19;20190;-79
2022/09/06 12:17:10;;;;;;;4.07;2.55;;;28.50;99.90;;;;;;7392811;19;20135;-80
2022/09/06 12:20:05;;;;;;;3.97;2.10;;;28.70;99.90;;;;;;7391316;19;20151;-80
2022/09/06 12:22:31;;;;;;;2.95;2.10;;;28.80;99.90;;;;;;7393695;19;20671;-80
2022/09/06 12:25:03;;;;;;;7.22;2.00;;;28.80;99.90;;;;;;7394381;19;20138;-80
2022/09/06 12:27:32;;;;;;;6.47;2.30;;;28.80;99.90;;;;;;7395783;19;20138;-80
2022/09/06 12:30:03;;;;;;;5.97;2.10;;;28.80;99.90;;;;;;7392646;19;20143;-80
2022/09/06 12:32:41;;;;;;;7.03;2.33;;;28.70;99.90;;;;;;7393198;19;20167;-80
2022/09/06 12:35:13;;;;;;;3.25;2.33;;;28.60;99.90;;;;;;7391800;19;20146;-80
2022/09/06 12:38:05;;;;;;;3.25;2.17;;;28.40;99.90;;;;;;7392125;19;20647;-80
2022/09/06 12:40:37;;;;;;;3.17;2.05;;;28.20;99.90;;;;;;7392839;19;20253;-80
2022/09/06 12:43:04;;;;;;;6.72;2.40;;;28.10;99.90;;;;;;7393563;19;20161;-80
2022/09/06 12:45:30;;;;;;;3.33;2.00;;;27.90;99.90;;;;;;7393635;19;20134;-82
2022/09/06 12:48:05;;;;;;;3.95;2.15;;;27.70;99.90;;;;;;7391478;19;20141;-81
2022/09/06 12:50:31;;;;;;;6.22;2.20;;;27.40;99.90;;;;;;7393043;19;21018;-79
2022/09/06 12:52:59;;;;;;;3.05;2.40;;;27.30;99.90;;;;;;7391727;19;20141;-81
2022/09/06 12:55:34;;;;;;;8.00;2.95;;;27.10;99.90;;;;;;7392834;19;20145;-83
2022/09/06 12:58:06;;;;;;;6.00;2.92;;;27.00;99.90;;;;;;7391624;19;20133;-79
2022/09/06 13:00:39;;;;;;;5.57;2.60;;;26.90;99.90;;;;;;7390498;19;20160;-80
2022/09/06 13:03:37;;;;;;;4.25;2.50;;;26.70;99.90;;;;;;7391626;19;20230;-80
2022/09/06 13:06:05;;;;;;;7.10;2.35;;;26.40;99.90;;;;;;7393447;19;20164;-79
2022/09/06 13:08:36;;;;;;;6.57;2.92;;;26.30;99.90;;;;;;7391829;19;20601;-80